sensor_id;sensor_type;location;lat;lon;timestamp;temperature;humidity
20670;DHT22;10494;50.868;4.180;2023-12-20T00:00:57;7.00;99.90
20670;DHT22;10494;50.868;4.180;2023-12-20T00:03:22;7.10;99.90
20670;DHT22;10494;50.868;4.180;2023-12-20T00:05:49;7.10;99.90
20670;DHT22;10494;50.868;4.180;2023-12-20T00:08:16;7.10;99.90
20670;DHT22;10494;50.868;4.180;2023-12-20T00:10:43;7.20;99.90
20670;DHT22;10494;50.868;4.180;2023-12-20T00:13:09;7.30;99.90
20670;DHT22;10494;50.868;4.180;2023-12-20T00:15:34;7.20;99.90
20670;DHT22;10494;50.868;4.180;2023-12-20T00:18:00;7.30;99.90
20670;DHT22;10494;50.868;4.180;2023-12-20T00:20:26;7.30;99.90
20670;DHT22;10494;50.868;4.180;2023-12-20T00:22:53;7.10;99.90
20670;DHT22;10494;50.868;4.180;2023-12-20T00:25:19;7.10;99.90
20670;DHT22;10494;50.868;4.180;2023-12-20T00:27:44;7.20;99.90
20670;DHT22;10494;50.868;4.180;2023-12-20T00:30:10;7.10;99.90
20670;DHT22;10494;50.868;4.180;2023-12-20T00:32:36;7.00;99.90
20670;DHT22;10494;50.868;4.180;2023-12-20T00:35:02;6.80;99.90
20670;DHT22;10494;50.868;4.180;2023-12-20T00:37:27;6.80;99.90
20670;DHT22;10494;50.868;4.180;2023-12-20T00:39:53;6.60;99.90
20670;DHT22;10494;50.868;4.180;2023-12-20T00:42:18;6.80;99.90
20670;DHT22;10494;50.868;4.180;2023-12-20T00:44:44;6.80;99.90
20670;DHT22;10494;50.868;4.180;2023-12-20T00:47:10;6.80;99.90
20670;DHT22;10494;50.868;4.180;2023-12-20T00:49:36;6.70;99.90
20670;DHT22;10494;50.868;4.180;2023-12-20T00:52:01;6.80;99.90
20670;DHT22;10494;50.868;4.180;2023-12-20T00:54:27;6.80;99.90
20670;DHT22;10494;50.868;4.180;2023-12-20T00:56:52;6.70;99.90
20670;DHT22;10494;50.868;4.180;2023-12-20T00:59:19;6.60;99.90
20670;DHT22;10494;50.868;4.180;2023-12-20T01:01:45;6.70;99.90
20670;DHT22;10494;50.868;4.180;2023-12-20T01:04:10;6.70;99.90
20670;DHT22;10494;50.868;4.180;2023-12-20T01:06:36;6.70;99.90
20670;DHT22;10494;50.868;4.180;2023-12-20T01:09:02;6.60;99.90
20670;DHT22;10494;50.868;4.180;2023-12-20T01:11:28;6.70;99.90
20670;DHT22;10494;50.868;4.180;2023-12-20T01:13:53;6.70;99.90
20670;DHT22;10494;50.868;4.180;2023-12-20T01:16:19;6.60;99.90
20670;DHT22;10494;50.868;4.180;2023-12-20T01:18:45;6.60;99.90
20670;DHT22;10494;50.868;4.180;2023-12-20T01:21:10;6.60;99.90
20670;DHT22;10494;50.868;4.180;2023-12-20T01:23:36;6.60;99.90
20670;DHT22;10494;50.868;4.180;2023-12-20T01:26:02;6.60;99.90
20670;DHT22;10494;50.868;4.180;2023-12-20T01:28:28;6.60;99.90
20670;DHT22;10494;50.868;4.180;2023-12-20T01:30:54;6.70;99.90
20670;DHT22;10494;50.868;4.180;2023-12-20T01:33:19;6.60;99.90
20670;DHT22;10494;50.868;4.180;2023-12-20T01:35:45;6.70;99.90
20670;DHT22;10494;50.868;4.180;2023-12-20T01:38:10;6.70;99.90
20670;DHT22;10494;50.868;4.180;2023-12-20T01:40:36;6.80;99.90
20670;DHT22;10494;50.868;4.180;2023-12-20T01:43:06;6.80;99.90
20670;DHT22;10494;50.868;4.180;2023-12-20T01:45:33;6.70;99.90
20670;DHT22;10494;50.868;4.180;2023-12-20T01:47:59;6.60;99.90
20670;DHT22;10494;50.868;4.180;2023-12-20T01:50:25;6.50;99.90
20670;DHT22;10494;50.868;4.180;2023-12-20T01:52:54;6.50;99.90
20670;DHT22;10494;50.868;4.180;2023-12-20T01:55:23;6.60;99.90
20670;DHT22;10494;50.868;4.180;2023-12-20T01:57:49;6.50;99.90
20670;DHT22;10494;50.868;4.180;2023-12-20T02:00:16;6.50;99.90
20670;DHT22;10494;50.868;4.180;2023-12-20T02:02:43;6.50;99.90
20670;DHT22;10494;50.868;4.180;2023-12-20T02:05:10;6.50;99.90
20670;DHT22;10494;50.868;4.180;2023-12-20T02:07:36;6.40;99.90
20670;DHT22;10494;50.868;4.180;2023-12-20T02:10:02;6.30;99.90
20670;DHT22;10494;50.868;4.180;2023-12-20T02:12:29;6.40;99.90
20670;DHT22;10494;50.868;4.180;2023-12-20T02:14:55;6.40;99.90
20670;DHT22;10494;50.868;4.180;2023-12-20T02:17:20;6.40;99.90
20670;DHT22;10494;50.868;4.180;2023-12-20T02:19:47;6.40;99.90
20670;DHT22;10494;50.868;4.180;2023-12-20T02:22:13;6.40;99.90
20670;DHT22;10494;50.868;4.180;2023-12-20T02:24:39;6.40;99.90
20670;DHT22;10494;50.868;4.180;2023-12-20T02:27:06;6.50;99.90
20670;DHT22;10494;50.868;4.180;2023-12-20T02:29:35;6.50;99.90
20670;DHT22;10494;50.868;4.180;2023-12-20T02:32:02;6.30;99.90
20670;DHT22;10494;50.868;4.180;2023-12-20T02:34:28;6.40;99.90
20670;DHT22;10494;50.868;4.180;2023-12-20T02:36:54;6.40;99.90
20670;DHT22;10494;50.868;4.180;2023-12-20T02:39:21;6.40;99.90
20670;DHT22;10494;50.868;4.180;2023-12-20T02:41:46;6.40;99.90
20670;DHT22;10494;50.868;4.180;2023-12-20T02:44:12;6.50;99.90
20670;DHT22;10494;50.868;4.180;2023-12-20T02:46:38;6.60;99.90
20670;DHT22;10494;50.868;4.180;2023-12-20T02:49:03;6.60;99.90
20670;DHT22;10494;50.868;4.180;2023-12-20T02:51:29;6.60;99.90
20670;DHT22;10494;50.868;4.180;2023-12-20T02:53:55;6.70;99.90
20670;DHT22;10494;50.868;4.180;2023-12-20T02:56:20;6.70;99.90
20670;DHT22;10494;50.868;4.180;2023-12-20T02:58:46;6.80;99.90
20670;DHT22;10494;50.868;4.180;2023-12-20T03:01:11;6.80;99.90
20670;DHT22;10494;50.868;4.180;2023-12-20T03:03:37;6.90;99.90
20670;DHT22;10494;50.868;4.180;2023-12-20T03:06:03;6.90;99.90
20670;DHT22;10494;50.868;4.180;2023-12-20T03:08:28;7.00;99.90
20670;DHT22;10494;50.868;4.180;2023-12-20T03:10:54;7.10;99.90
20670;DHT22;10494;50.868;4.180;2023-12-20T03:13:20;7.10;99.90
20670;DHT22;10494;50.868;4.180;2023-12-20T03:15:45;7.00;99.90
20670;DHT22;10494;50.868;4.180;2023-12-20T03:18:11;6.90;99.90
20670;DHT22;10494;50.868;4.180;2023-12-20T03:20:37;7.00;99.90
20670;DHT22;10494;50.868;4.180;2023-12-20T03:23:03;7.20;99.90
20670;DHT22;10494;50.868;4.180;2023-12-20T03:25:29;7.20;99.90
20670;DHT22;10494;50.868;4.180;2023-12-20T03:27:55;7.20;99.90
20670;DHT22;10494;50.868;4.180;2023-12-20T03:30:20;7.20;99.90
20670;DHT22;10494;50.868;4.180;2023-12-20T03:32:46;7.20;99.90
20670;DHT22;10494;50.868;4.180;2023-12-20T03:35:12;7.10;99.90
20670;DHT22;10494;50.868;4.180;2023-12-20T03:37:38;7.00;99.90
20670;DHT22;10494;50.868;4.180;2023-12-20T03:40:04;7.00;99.90
20670;DHT22;10494;50.868;4.180;2023-12-20T03:42:30;6.90;99.90
20670;DHT22;10494;50.868;4.180;2023-12-20T03:44:56;6.90;99.90
20670;DHT22;10494;50.868;4.180;2023-12-20T03:47:22;6.90;99.90
20670;DHT22;10494;50.868;4.180;2023-12-20T03:49:47;6.90;99.90
20670;DHT22;10494;50.868;4.180;2023-12-20T03:52:13;7.00;99.90
20670;DHT22;10494;50.868;4.180;2023-12-20T03:54:39;7.00;99.90
20670;DHT22;10494;50.868;4.180;2023-12-20T03:57:05;7.10;99.90
20670;DHT22;10494;50.868;4.180;2023-12-20T03:59:35;7.10;99.90
20670;DHT22;10494;50.868;4.180;2023-12-20T04:02:00;7.20;99.90
20670;DHT22;10494;50.868;4.180;2023-12-20T04:04:26;7.20;99.90
20670;DHT22;10494;50.868;4.180;2023-12-20T04:06:52;7.30;99.90
20670;DHT22;10494;50.868;4.180;2023-12-20T04:09:17;7.20;99.90
20670;DHT22;10494;50.868;4.180;2023-12-20T04:11:43;7.00;99.90
20670;DHT22;10494;50.868;4.180;2023-12-20T04:14:08;7.00;99.90
20670;DHT22;10494;50.868;4.180;2023-12-20T04:16:35;7.00;99.90
20670;DHT22;10494;50.868;4.180;2023-12-20T04:19:01;6.90;99.90
20670;DHT22;10494;50.868;4.180;2023-12-20T04:21:26;6.80;99.90
20670;DHT22;10494;50.868;4.180;2023-12-20T04:23:52;6.80;99.90
20670;DHT22;10494;50.868;4.180;2023-12-20T04:26:18;6.80;99.90
20670;DHT22;10494;50.868;4.180;2023-12-20T04:28:43;6.70;99.90
20670;DHT22;10494;50.868;4.180;2023-12-20T04:31:09;6.70;99.90
20670;DHT22;10494;50.868;4.180;2023-12-20T04:33:34;6.70;99.90
20670;DHT22;10494;50.868;4.180;2023-12-20T04:36:00;6.60;99.90
20670;DHT22;10494;50.868;4.180;2023-12-20T04:38:26;6.60;99.90
20670;DHT22;10494;50.868;4.180;2023-12-20T04:40:51;6.60;99.90
20670;DHT22;10494;50.868;4.180;2023-12-20T04:43:17;6.70;99.90
20670;DHT22;10494;50.868;4.180;2023-12-20T04:45:43;6.70;99.90
20670;DHT22;10494;50.868;4.180;2023-12-20T04:48:08;6.70;99.90
20670;DHT22;10494;50.868;4.180;2023-12-20T04:50:34;6.80;99.90
20670;DHT22;10494;50.868;4.180;2023-12-20T04:52:59;6.90;99.90
20670;DHT22;10494;50.868;4.180;2023-12-20T04:55:25;7.00;99.90
20670;DHT22;10494;50.868;4.180;2023-12-20T04:57:51;7.00;99.90
20670;DHT22;10494;50.868;4.180;2023-12-20T05:00:16;6.90;99.90
20670;DHT22;10494;50.868;4.180;2023-12-20T05:02:42;6.80;99.90
20670;DHT22;10494;50.868;4.180;2023-12-20T05:05:08;6.80;99.90
20670;DHT22;10494;50.868;4.180;2023-12-20T05:07:33;6.70;99.90
20670;DHT22;10494;50.868;4.180;2023-12-20T05:09:59;6.80;99.90
20670;DHT22;10494;50.868;4.180;2023-12-20T05:12:25;6.80;99.90
20670;DHT22;10494;50.868;4.180;2023-12-20T05:14:52;6.80;99.90
20670;DHT22;10494;50.868;4.180;2023-12-20T05:17:17;6.70;99.90
20670;DHT22;10494;50.868;4.180;2023-12-20T05:19:43;6.60;99.90
20670;DHT22;10494;50.868;4.180;2023-12-20T05:22:09;6.70;99.90
20670;DHT22;10494;50.868;4.180;2023-12-20T05:24:35;6.50;99.90
20670;DHT22;10494;50.868;4.180;2023-12-20T05:27:00;6.40;99.90
20670;DHT22;10494;50.868;4.180;2023-12-20T05:29:26;6.30;99.90
20670;DHT22;10494;50.868;4.180;2023-12-20T05:31:52;6.30;99.90
20670;DHT22;10494;50.868;4.180;2023-12-20T05:34:17;6.20;99.90
20670;DHT22;10494;50.868;4.180;2023-12-20T05:36:43;6.20;99.90
20670;DHT22;10494;50.868;4.180;2023-12-20T05:39:08;6.20;99.90
20670;DHT22;10494;50.868;4.180;2023-12-20T05:41:34;6.10;99.90
20670;DHT22;10494;50.868;4.180;2023-12-20T05:44:00;6.10;99.90
20670;DHT22;10494;50.868;4.180;2023-12-20T05:46:26;6.10;99.90
20670;DHT22;10494;50.868;4.180;2023-12-20T05:48:51;6.10;99.90
20670;DHT22;10494;50.868;4.180;2023-12-20T05:51:18;6.10;99.90
20670;DHT22;10494;50.868;4.180;2023-12-20T05:53:44;6.10;99.90
20670;DHT22;10494;50.868;4.180;2023-12-20T05:56:10;6.00;99.90
20670;DHT22;10494;50.868;4.180;2023-12-20T05:58:36;6.10;99.90
20670;DHT22;10494;50.868;4.180;2023-12-20T06:01:05;6.00;99.90
20670;DHT22;10494;50.868;4.180;2023-12-20T06:03:31;6.10;99.90
20670;DHT22;10494;50.868;4.180;2023-12-20T06:05:56;6.20;99.90
20670;DHT22;10494;50.868;4.180;2023-12-20T06:08:22;6.20;99.90
20670;DHT22;10494;50.868;4.180;2023-12-20T06:10:48;6.30;99.90
20670;DHT22;10494;50.868;4.180;2023-12-20T06:13:14;6.30;99.90
20670;DHT22;10494;50.868;4.180;2023-12-20T06:15:40;6.40;99.90
20670;DHT22;10494;50.868;4.180;2023-12-20T06:18:06;6.30;99.90
20670;DHT22;10494;50.868;4.180;2023-12-20T06:20:32;6.50;99.90
20670;DHT22;10494;50.868;4.180;2023-12-20T06:22:58;6.60;99.90
20670;DHT22;10494;50.868;4.180;2023-12-20T06:25:24;6.50;99.90
20670;DHT22;10494;50.868;4.180;2023-12-20T06:27:49;6.50;99.90
20670;DHT22;10494;50.868;4.180;2023-12-20T06:30:16;6.50;99.90
20670;DHT22;10494;50.868;4.180;2023-12-20T06:32:42;6.50;99.90
20670;DHT22;10494;50.868;4.180;2023-12-20T06:35:08;6.50;99.90
20670;DHT22;10494;50.868;4.180;2023-12-20T06:37:34;6.40;99.90
20670;DHT22;10494;50.868;4.180;2023-12-20T06:40:00;6.30;99.90
20670;DHT22;10494;50.868;4.180;2023-12-20T06:42:26;6.20;99.90
20670;DHT22;10494;50.868;4.180;2023-12-20T06:44:52;6.20;99.90
20670;DHT22;10494;50.868;4.180;2023-12-20T06:47:17;6.10;99.90
20670;DHT22;10494;50.868;4.180;2023-12-20T06:49:43;6.00;99.90
20670;DHT22;10494;50.868;4.180;2023-12-20T06:52:09;5.90;99.90
20670;DHT22;10494;50.868;4.180;2023-12-20T06:54:34;5.90;99.90
20670;DHT22;10494;50.868;4.180;2023-12-20T06:57:00;5.90;99.90
20670;DHT22;10494;50.868;4.180;2023-12-20T06:59:27;5.90;99.90
20670;DHT22;10494;50.868;4.180;2023-12-20T07:01:53;5.80;99.90
20670;DHT22;10494;50.868;4.180;2023-12-20T07:04:19;5.80;99.90
20670;DHT22;10494;50.868;4.180;2023-12-20T07:06:47;5.70;99.90
20670;DHT22;10494;50.868;4.180;2023-12-20T07:09:13;5.70;99.90
20670;DHT22;10494;50.868;4.180;2023-12-20T07:11:39;5.60;99.90
20670;DHT22;10494;50.868;4.180;2023-12-20T07:14:05;5.60;99.90
20670;DHT22;10494;50.868;4.180;2023-12-20T07:16:31;5.60;99.90
20670;DHT22;10494;50.868;4.180;2023-12-20T07:18:57;5.60;99.90
20670;DHT22;10494;50.868;4.180;2023-12-20T07:21:23;5.60;99.90
20670;DHT22;10494;50.868;4.180;2023-12-20T07:23:48;5.50;99.90
20670;DHT22;10494;50.868;4.180;2023-12-20T07:26:14;5.40;99.90
20670;DHT22;10494;50.868;4.180;2023-12-20T07:28:40;5.40;99.90
20670;DHT22;10494;50.868;4.180;2023-12-20T07:31:06;5.40;99.90
20670;DHT22;10494;50.868;4.180;2023-12-20T07:33:32;5.50;99.90
20670;DHT22;10494;50.868;4.180;2023-12-20T07:35:59;5.50;99.90
20670;DHT22;10494;50.868;4.180;2023-12-20T07:38:24;5.50;99.90
20670;DHT22;10494;50.868;4.180;2023-12-20T07:40:50;5.50;99.90
20670;DHT22;10494;50.868;4.180;2023-12-20T07:43:16;5.60;99.90
20670;DHT22;10494;50.868;4.180;2023-12-20T07:45:41;5.60;99.90
20670;DHT22;10494;50.868;4.180;2023-12-20T07:48:07;5.50;99.90
20670;DHT22;10494;50.868;4.180;2023-12-20T07:50:33;5.50;99.90
20670;DHT22;10494;50.868;4.180;2023-12-20T07:52:58;5.50;99.90
20670;DHT22;10494;50.868;4.180;2023-12-20T07:55:26;5.40;99.90
20670;DHT22;10494;50.868;4.180;2023-12-20T07:57:52;5.50;99.90
20670;DHT22;10494;50.868;4.180;2023-12-20T08:00:18;5.40;99.90
20670;DHT22;10494;50.868;4.180;2023-12-20T08:02:43;5.50;99.90
20670;DHT22;10494;50.868;4.180;2023-12-20T08:05:09;5.50;99.90
20670;DHT22;10494;50.868;4.180;2023-12-20T08:07:35;5.50;99.90
20670;DHT22;10494;50.868;4.180;2023-12-20T08:10:00;5.60;99.90
20670;DHT22;10494;50.868;4.180;2023-12-20T08:12:26;5.60;99.90
20670;DHT22;10494;50.868;4.180;2023-12-20T08:14:53;5.70;99.90
20670;DHT22;10494;50.868;4.180;2023-12-20T08:17:19;5.70;99.90
20670;DHT22;10494;50.868;4.180;2023-12-20T08:19:45;5.80;99.90
20670;DHT22;10494;50.868;4.180;2023-12-20T08:22:11;5.80;99.90
20670;DHT22;10494;50.868;4.180;2023-12-20T08:24:37;6.00;99.90
20670;DHT22;10494;50.868;4.180;2023-12-20T08:27:03;6.00;99.90
20670;DHT22;10494;50.868;4.180;2023-12-20T08:29:29;6.00;99.90
20670;DHT22;10494;50.868;4.180;2023-12-20T08:31:55;6.10;99.90
20670;DHT22;10494;50.868;4.180;2023-12-20T08:34:20;6.10;99.90
20670;DHT22;10494;50.868;4.180;2023-12-20T08:36:46;6.10;99.90
20670;DHT22;10494;50.868;4.180;2023-12-20T08:39:12;6.10;99.90
20670;DHT22;10494;50.868;4.180;2023-12-20T08:41:38;6.30;99.90
20670;DHT22;10494;50.868;4.180;2023-12-20T08:44:03;6.40;99.90
20670;DHT22;10494;50.868;4.180;2023-12-20T08:46:29;6.60;99.90
20670;DHT22;10494;50.868;4.180;2023-12-20T08:48:55;7.00;99.90
20670;DHT22;10494;50.868;4.180;2023-12-20T08:51:21;7.30;99.90
20670;DHT22;10494;50.868;4.180;2023-12-20T08:53:48;7.60;99.90
20670;DHT22;10494;50.868;4.180;2023-12-20T08:56:14;8.10;99.90
20670;DHT22;10494;50.868;4.180;2023-12-20T08:58:40;8.50;99.90
20670;DHT22;10494;50.868;4.180;2023-12-20T09:01:06;8.60;99.90
20670;DHT22;10494;50.868;4.180;2023-12-20T09:03:33;8.70;93.60
20670;DHT22;10494;50.868;4.180;2023-12-20T09:05:58;9.10;95.90
20670;DHT22;10494;50.868;4.180;2023-12-20T09:08:24;9.40;74.00
20670;DHT22;10494;50.868;4.180;2023-12-20T09:10:49;9.50;99.90
20670;DHT22;10494;50.868;4.180;2023-12-20T09:13:15;10.00;99.90
20670;DHT22;10494;50.868;4.180;2023-12-20T09:15:41;10.10;90.20
20670;DHT22;10494;50.868;4.180;2023-12-20T09:18:07;10.00;1.00
20670;DHT22;10494;50.868;4.180;2023-12-20T09:20:33;10.10;99.90
20670;DHT22;10494;50.868;4.180;2023-12-20T09:22:59;10.20;93.60
20670;DHT22;10494;50.868;4.180;2023-12-20T09:25:25;10.70;67.00
20670;DHT22;10494;50.868;4.180;2023-12-20T09:27:55;11.00;1.00
20670;DHT22;10494;50.868;4.180;2023-12-20T09:30:21;11.20;1.00
20670;DHT22;10494;50.868;4.180;2023-12-20T09:32:46;11.40;1.00
20670;DHT22;10494;50.868;4.180;2023-12-20T09:35:12;11.60;99.90
20670;DHT22;10494;50.868;4.180;2023-12-20T09:37:37;11.70;99.90
20670;DHT22;10494;50.868;4.180;2023-12-20T09:40:04;11.40;1.00
20670;DHT22;10494;50.868;4.180;2023-12-20T09:45:35;11.50;99.90
20670;DHT22;10494;50.868;4.180;2023-12-20T09:48:01;11.60;99.90
20670;DHT22;10494;50.868;4.180;2023-12-20T09:50:30;11.30;1.00
20670;DHT22;10494;50.868;4.180;2023-12-20T09:52:58;11.20;99.90
20670;DHT22;10494;50.868;4.180;2023-12-20T09:55:27;10.60;99.90
20670;DHT22;10494;50.868;4.180;2023-12-20T09:57:53;10.40;1.00
20670;DHT22;10494;50.868;4.180;2023-12-20T10:00:19;10.10;99.90
20670;DHT22;10494;50.868;4.180;2023-12-20T10:02:57;9.60;1.00
20670;DHT22;10494;50.868;4.180;2023-12-20T10:05:33;9.60;7.00
20670;DHT22;10494;50.868;4.180;2023-12-20T10:08:00;9.70;99.90
20670;DHT22;10494;50.868;4.180;2023-12-20T10:10:26;10.10;1.00
20670;DHT22;10494;50.868;4.180;2023-12-20T10:13:08;10.40;99.90
20670;DHT22;10494;50.868;4.180;2023-12-20T10:15:34;10.60;1.00
20670;DHT22;10494;50.868;4.180;2023-12-20T10:18:01;10.20;1.00
20670;DHT22;10494;50.868;4.180;2023-12-20T10:20:27;9.90;1.00
20670;DHT22;10494;50.868;4.180;2023-12-20T10:22:55;9.70;1.00
20670;DHT22;10494;50.868;4.180;2023-12-20T10:25:21;9.60;99.90
20670;DHT22;10494;50.868;4.180;2023-12-20T10:27:47;9.60;99.90
20670;DHT22;10494;50.868;4.180;2023-12-20T10:30:13;9.20;99.90
20670;DHT22;10494;50.868;4.180;2023-12-20T10:32:40;9.10;1.00
20670;DHT22;10494;50.868;4.180;2023-12-20T10:35:06;9.10;1.00
20670;DHT22;10494;50.868;4.180;2023-12-20T10:37:35;9.10;1.00
20670;DHT22;10494;50.868;4.180;2023-12-20T10:40:04;9.20;99.90
20670;DHT22;10494;50.868;4.180;2023-12-20T10:42:29;9.20;99.90
20670;DHT22;10494;50.868;4.180;2023-12-20T10:44:56;9.30;1.00
20670;DHT22;10494;50.868;4.180;2023-12-20T10:47:23;9.30;1.00
20670;DHT22;10494;50.868;4.180;2023-12-20T10:49:52;9.30;99.90
20670;DHT22;10494;50.868;4.180;2023-12-20T10:52:18;9.30;99.90
20670;DHT22;10494;50.868;4.180;2023-12-20T10:54:44;9.40;99.90
20670;DHT22;10494;50.868;4.180;2023-12-20T10:57:10;9.40;79.50
20670;DHT22;10494;50.868;4.180;2023-12-20T10:59:37;9.60;1.00
20670;DHT22;10494;50.868;4.180;2023-12-20T11:02:04;9.40;1.00
20670;DHT22;10494;50.868;4.180;2023-12-20T11:04:39;9.30;1.00
20670;DHT22;10494;50.868;4.180;2023-12-20T11:07:19;9.40;57.40
20670;DHT22;10494;50.868;4.180;2023-12-20T11:09:59;9.30;1.00
20670;DHT22;10494;50.868;4.180;2023-12-20T11:15:15;9.30;99.90
20670;DHT22;10494;50.868;4.180;2023-12-20T11:17:44;9.40;1.00
20670;DHT22;10494;50.868;4.180;2023-12-20T11:20:11;9.30;99.90
20670;DHT22;10494;50.868;4.180;2023-12-20T11:22:38;9.30;44.70
20670;DHT22;10494;50.868;4.180;2023-12-20T11:25:08;9.20;1.00
20670;DHT22;10494;50.868;4.180;2023-12-20T11:27:35;9.20;1.00
20670;DHT22;10494;50.868;4.180;2023-12-20T11:30:04;9.20;1.00
20670;DHT22;10494;50.868;4.180;2023-12-20T11:32:34;9.30;1.00
20670;DHT22;10494;50.868;4.180;2023-12-20T11:35:16;9.20;1.00
20670;DHT22;10494;50.868;4.180;2023-12-20T11:37:42;9.40;1.00
20670;DHT22;10494;50.868;4.180;2023-12-20T11:40:12;9.30;1.00
20670;DHT22;10494;50.868;4.180;2023-12-20T11:42:49;9.30;5.10
20670;DHT22;10494;50.868;4.180;2023-12-20T11:45:18;9.30;42.50
20670;DHT22;10494;50.868;4.180;2023-12-20T11:47:48;9.40;1.00
20670;DHT22;10494;50.868;4.180;2023-12-20T11:50:17;9.40;1.00
20670;DHT22;10494;50.868;4.180;2023-12-20T11:52:43;9.40;1.00
20670;DHT22;10494;50.868;4.180;2023-12-20T11:55:09;9.40;1.00
20670;DHT22;10494;50.868;4.180;2023-12-20T11:57:36;9.50;1.00
20670;DHT22;10494;50.868;4.180;2023-12-20T12:00:03;9.50;1.00
20670;DHT22;10494;50.868;4.180;2023-12-20T12:02:29;9.40;99.90
20670;DHT22;10494;50.868;4.180;2023-12-20T12:04:55;9.30;1.00
20670;DHT22;10494;50.868;4.180;2023-12-20T12:07:22;9.40;1.00
20670;DHT22;10494;50.868;4.180;2023-12-20T12:09:48;9.50;1.00
20670;DHT22;10494;50.868;4.180;2023-12-20T12:12:14;9.30;1.00
20670;DHT22;10494;50.868;4.180;2023-12-20T12:14:39;9.40;2.40
20670;DHT22;10494;50.868;4.180;2023-12-20T12:17:15;9.50;1.00
20670;DHT22;10494;50.868;4.180;2023-12-20T12:19:42;9.60;1.00
20670;DHT22;10494;50.868;4.180;2023-12-20T12:22:13;9.60;1.00
20670;DHT22;10494;50.868;4.180;2023-12-20T12:24:48;9.80;99.90
20670;DHT22;10494;50.868;4.180;2023-12-20T12:27:15;9.80;84.50
20670;DHT22;10494;50.868;4.180;2023-12-20T12:29:43;9.80;1.00
20670;DHT22;10494;50.868;4.180;2023-12-20T12:32:25;9.70;1.00
20670;DHT22;10494;50.868;4.180;2023-12-20T12:34:51;9.60;1.00
20670;DHT22;10494;50.868;4.180;2023-12-20T12:37:17;9.40;99.90
20670;DHT22;10494;50.868;4.180;2023-12-20T12:39:42;9.40;1.00
20670;DHT22;10494;50.868;4.180;2023-12-20T12:42:08;9.40;1.00
20670;DHT22;10494;50.868;4.180;2023-12-20T12:44:33;9.40;1.00
20670;DHT22;10494;50.868;4.180;2023-12-20T12:46:59;9.30;1.00
20670;DHT22;10494;50.868;4.180;2023-12-20T12:49:25;9.40;58.70
20670;DHT22;10494;50.868;4.180;2023-12-20T12:51:51;9.30;34.30
20670;DHT22;10494;50.868;4.180;2023-12-20T12:54:17;9.40;1.00
20670;DHT22;10494;50.868;4.180;2023-12-20T12:56:43;9.40;1.00
20670;DHT22;10494;50.868;4.180;2023-12-20T12:59:09;9.50;1.00
20670;DHT22;10494;50.868;4.180;2023-12-20T13:01:35;9.60;1.00
20670;DHT22;10494;50.868;4.180;2023-12-20T13:04:01;9.60;1.00
20670;DHT22;10494;50.868;4.180;2023-12-20T13:06:29;9.50;1.00
20670;DHT22;10494;50.868;4.180;2023-12-20T13:08:54;9.50;99.90
20670;DHT22;10494;50.868;4.180;2023-12-20T13:11:20;9.50;99.90
20670;DHT22;10494;50.868;4.180;2023-12-20T13:13:46;9.70;1.00
20670;DHT22;10494;50.868;4.180;2023-12-20T13:16:12;9.80;1.00
20670;DHT22;10494;50.868;4.180;2023-12-20T13:18:38;9.90;1.00
20670;DHT22;10494;50.868;4.180;2023-12-20T13:21:08;9.90;99.90
20670;DHT22;10494;50.868;4.180;2023-12-20T13:23:33;9.90;99.90
20670;DHT22;10494;50.868;4.180;2023-12-20T13:25:59;10.10;99.90
20670;DHT22;10494;50.868;4.180;2023-12-20T13:28:24;10.10;1.00
20670;DHT22;10494;50.868;4.180;2023-12-20T13:30:50;10.00;1.00
20670;DHT22;10494;50.868;4.180;2023-12-20T13:33:15;10.00;1.00
20670;DHT22;10494;50.868;4.180;2023-12-20T13:35:41;10.10;1.00
20670;DHT22;10494;50.868;4.180;2023-12-20T13:38:07;10.10;1.00
20670;DHT22;10494;50.868;4.180;2023-12-20T13:40:33;10.10;1.00
20670;DHT22;10494;50.868;4.180;2023-12-20T13:42:59;10.20;1.00
20670;DHT22;10494;50.868;4.180;2023-12-20T13:45:24;10.20;1.00
20670;DHT22;10494;50.868;4.180;2023-12-20T13:47:50;10.20;1.00
20670;DHT22;10494;50.868;4.180;2023-12-20T13:50:16;10.30;99.90
20670;DHT22;10494;50.868;4.180;2023-12-20T13:52:42;10.30;99.90
20670;DHT22;10494;50.868;4.180;2023-12-20T13:55:08;10.40;1.00
20670;DHT22;10494;50.868;4.180;2023-12-20T13:57:35;10.40;1.00
20670;DHT22;10494;50.868;4.180;2023-12-20T14:00:04;10.40;1.00
20670;DHT22;10494;50.868;4.180;2023-12-20T14:02:30;10.30;1.00
20670;DHT22;10494;50.868;4.180;2023-12-20T14:04:55;10.40;1.00
20670;DHT22;10494;50.868;4.180;2023-12-20T14:07:21;10.30;29.20
20670;DHT22;10494;50.868;4.180;2023-12-20T14:09:47;10.40;1.00
20670;DHT22;10494;50.868;4.180;2023-12-20T14:12:13;10.40;1.00
20670;DHT22;10494;50.868;4.180;2023-12-20T14:14:39;10.30;1.00
20670;DHT22;10494;50.868;4.180;2023-12-20T14:17:04;10.40;99.90
20670;DHT22;10494;50.868;4.180;2023-12-20T14:19:32;10.50;1.00
20670;DHT22;10494;50.868;4.180;2023-12-20T14:21:57;10.40;1.00
20670;DHT22;10494;50.868;4.180;2023-12-20T14:24:27;10.30;1.00
20670;DHT22;10494;50.868;4.180;2023-12-20T14:26:52;10.30;1.00
20670;DHT22;10494;50.868;4.180;2023-12-20T14:29:18;10.20;99.90
20670;DHT22;10494;50.868;4.180;2023-12-20T14:31:44;10.10;99.90
20670;DHT22;10494;50.868;4.180;2023-12-20T14:34:09;10.20;99.90
20670;DHT22;10494;50.868;4.180;2023-12-20T14:36:35;10.10;99.90
20670;DHT22;10494;50.868;4.180;2023-12-20T14:39:01;10.10;99.90
20670;DHT22;10494;50.868;4.180;2023-12-20T14:41:28;10.20;99.90
20670;DHT22;10494;50.868;4.180;2023-12-20T14:43:54;10.10;99.90
20670;DHT22;10494;50.868;4.180;2023-12-20T14:46:20;10.10;99.90
20670;DHT22;10494;50.868;4.180;2023-12-20T14:48:45;10.10;99.90
20670;DHT22;10494;50.868;4.180;2023-12-20T14:51:11;10.20;99.90
20670;DHT22;10494;50.868;4.180;2023-12-20T14:53:38;10.20;1.00
20670;DHT22;10494;50.868;4.180;2023-12-20T14:56:05;10.20;1.00
20670;DHT22;10494;50.868;4.180;2023-12-20T14:58:31;10.30;1.00
20670;DHT22;10494;50.868;4.180;2023-12-20T15:00:57;10.30;99.90
20670;DHT22;10494;50.868;4.180;2023-12-20T15:03:23;10.30;99.90
20670;DHT22;10494;50.868;4.180;2023-12-20T15:05:49;10.30;99.90
20670;DHT22;10494;50.868;4.180;2023-12-20T15:08:15;10.30;99.90
20670;DHT22;10494;50.868;4.180;2023-12-20T15:10:41;10.20;1.00
20670;DHT22;10494;50.868;4.180;2023-12-20T15:13:06;10.30;1.00
20670;DHT22;10494;50.868;4.180;2023-12-20T15:15:32;10.30;1.00
20670;DHT22;10494;50.868;4.180;2023-12-20T15:17:59;10.30;99.90
20670;DHT22;10494;50.868;4.180;2023-12-20T15:20:25;10.40;1.00
20670;DHT22;10494;50.868;4.180;2023-12-20T15:22:51;10.30;1.00
20670;DHT22;10494;50.868;4.180;2023-12-20T15:25:18;10.10;1.00
20670;DHT22;10494;50.868;4.180;2023-12-20T15:27:49;10.10;1.00
20670;DHT22;10494;50.868;4.180;2023-12-20T15:30:21;10.10;1.00
20670;DHT22;10494;50.868;4.180;2023-12-20T15:32:49;10.10;1.00
20670;DHT22;10494;50.868;4.180;2023-12-20T15:35:15;10.10;1.00
20670;DHT22;10494;50.868;4.180;2023-12-20T15:37:41;10.10;1.60
20670;DHT22;10494;50.868;4.180;2023-12-20T15:40:10;10.10;99.90
20670;DHT22;10494;50.868;4.180;2023-12-20T15:42:39;10.20;99.90
20670;DHT22;10494;50.868;4.180;2023-12-20T15:45:07;10.20;1.00
20670;DHT22;10494;50.868;4.180;2023-12-20T15:47:36;10.30;1.00